Stations météo

Publicité
Chamonix, France (7469): Température de l'air & dewpoint: 22.03.2020 21:00:00 - 28.03.2020 21:00:00 (CET)Chamonix, France (7469): Vitesse du vent & gusts: 22.03.2020 21:00:00 - 28.03.2020 21:00:00 (CET)Chamonix, France (7469): Direction du vent: 22.03.2020 21:00:00 - 28.03.2020 21:00:00 (CET)Chamonix, France (7469): Quantités de précipitations: 22.03.2020 21:00:00 - 28.03.2020 21:00:00 (CET)
Date & Time tt [°C] td [°C] ff [km/h] ff [knt] fx [km/h] fx [knt] dd rr [mm]
28.03.2020 21:00:00 - - - - - - - -
28.03.2020 20:00:00 8,1 2,1 0 0 9 5 N 0,0
28.03.2020 19:00:00 10,7 1,2 2 1 21 11 SSW 0,0
28.03.2020 18:00:00 11,8 0,2 5 3 19 10 SW 0,0
28.03.2020 17:00:00 13,0 0,4 5 3 20 11 S 0,0
28.03.2020 16:00:00 12,7 -0,2 5 3 25 13 SSW 0,0
28.03.2020 15:00:00 13,1 -0,6 8 5 21 11 SW 0,0
28.03.2020 14:00:00 14,3 -1,0 7 4 21 11 SSW 0,0
28.03.2020 13:00:00 12,8 -0,5 4 2 19 11 WSW 0,0
28.03.2020 12:00:00 11,9 0,3 6 3 14 8 SSW 0,0
28.03.2020 11:00:00 11,4 1,1 4 2 13 7 SSE 0,0
28.03.2020 10:00:00 7,2 0,2 3 2 8 5 SSW 0,0
28.03.2020 09:00:00 5,0 1,5 0 0 4 2 N 0,0
28.03.2020 08:00:00 3,8 2,0 2 1 5 3 ESE 0,0
28.03.2020 07:00:00 2,2 1,0 3 1 6 3 E 0,0
28.03.2020 06:00:00 1,9 0,6 2 1 6 3 NNW 0,0
28.03.2020 05:00:00 2,2 0,7 2 1 6 3 SW 0,0
28.03.2020 04:00:00 2,1 0,6 3 1 6 3 NNW 0,0
28.03.2020 03:00:00 2,0 0,5 0 0 6 3 N 0,0
28.03.2020 02:00:00 1,8 0,2 0 0 7 4 N 0,0
28.03.2020 01:00:00 1,7 0,1 3 1 6 4 NNE 0,0
28.03.2020 00:00:00 1,5 -0,1 0 0 5 3 N 0,0
27.03.2020 23:00:00 1,4 -0,5 2 1 4 2 E 0,0
27.03.2020 22:00:00 1,9 -0,2 0 0 5 3 N 0,0
27.03.2020 21:00:00 2,0 -0,4 0 0 5 3 N 0,0
27.03.2020 20:00:00 3,1 -0,2 2 1 5 3 ENE 0,0
27.03.2020 19:00:00 5,6 -0,3 0 0 16 8 N 0,0
27.03.2020 18:00:00 9,1 -1,1 6 3 18 10 SSW 0,0
27.03.2020 17:00:00 10,4 -1,0 8 5 23 12 SW 0,0
27.03.2020 16:00:00 11,3 -1,5 11 6 25 13 SW 0,0
27.03.2020 15:00:00 11,3 -1,8 11 6 24 13 SW 0,0
27.03.2020 14:00:00 11,7 -1,8 9 5 22 12 WSW 0,0
27.03.2020 13:00:00 10,5 -1,9 9 5 28 15 SSW 0,0
27.03.2020 12:00:00 10,4 -1,7 12 6 26 14 SW 0,0
27.03.2020 11:00:00 7,9 -1,1 3 2 9 5 SSW 0,0
27.03.2020 10:00:00 3,0 -2,7 2 1 8 5 S 0,0
27.03.2020 09:00:00 1,5 -2,5 0 0 10 5 N 0,0
27.03.2020 08:00:00 0,1 -2,8 0 0 8 4 N 0,0
27.03.2020 07:00:00 -1,6 -3,0 3 2 8 5 N 0,0
27.03.2020 06:00:00 -1,7 -3,3 3 1 9 5 ENE 0,0
27.03.2020 05:00:00 -1,7 -3,3 0 0 6 3 N 0,0
27.03.2020 04:00:00 -1,5 -3,2 2 1 9 5 NW 0,0
27.03.2020 03:00:00 -1,5 -3,4 0 0 9 5 N 0,0
27.03.2020 02:00:00 -1,7 -3,4 2 1 8 4 NNE 0,0
27.03.2020 01:00:00 -1,4 -3,8 2 1 9 5 N 0,0
27.03.2020 00:00:00 -0,5 -2,7 4 2 10 5 WNW 0,0
26.03.2020 23:00:00 -0,7 -3,6 3 1 6 3 NNE 0,0
26.03.2020 22:00:00 0,5 -3,1 2 1 6 3 ENE 0,0
26.03.2020 21:00:00 1,6 -2,9 0 0 7 4 N 0,0
26.03.2020 20:00:00 2,2 -2,7 3 1 10 5 NNE 0,0
26.03.2020 19:00:00 4,6 -4,2 3 2 13 7 SW 0,0
26.03.2020 18:00:00 5,5 -6,1 4 2 15 8 S 0,0
26.03.2020 17:00:00 6,1 -7,2 6 3 21 11 S 0,0
26.03.2020 16:00:00 6,4 -7,6 8 4 23 13 S 0,0
26.03.2020 15:00:00 5,9 -8,8 8 4 24 13 SW 0,0
26.03.2020 14:00:00 5,9 -10,0 6 3 21 12 S 0,0
26.03.2020 13:00:00 4,6 -7,9 9 5 22 12 SSW 0,0
26.03.2020 12:00:00 2,5 -8,5 7 4 24 13 SSW 0,2
26.03.2020 11:00:00 0,6 -7,9 6 3 22 12 SSW 0,2
26.03.2020 10:00:00 -0,1 -5,9 8 5 18 10 S 0,4
26.03.2020 09:00:00 -4,4 -6,4 4 2 12 7 SSW 0,0
26.03.2020 08:00:00 -5,1 -6,6 3 2 12 6 SSW 0,0
26.03.2020 07:00:00 -5,8 -7,2 2 1 9 5 SW 0,0
26.03.2020 06:00:00 -5,2 -6,6 3 2 14 8 SE 0,0
26.03.2020 05:00:00 -5,4 -6,5 0 0 8 5 N 0,0
26.03.2020 04:00:00 -5,0 -6,1 0 0 10 5 N 0,0
26.03.2020 03:00:00 -4,5 -5,5 3 2 9 5 S 0,0
26.03.2020 02:00:00 -4,0 -4,8 2 1 5 3 SSE 0,0
26.03.2020 01:00:00 -3,2 -4,0 0 0 8 4 N 0,0
26.03.2020 00:00:00 -2,3 -3,0 0 0 8 4 N 0,2
25.03.2020 23:00:00 -1,3 -2,1 0 0 11 6 N 0,2
25.03.2020 22:00:00 -1,0 -2,0 3 2 10 5 SW 0,6
25.03.2020 21:00:00 -0,3 -1,3 2 1 9 5 WSW 0,6
25.03.2020 20:00:00 0,0 -1,1 2 1 11 6 NNE 0,0
25.03.2020 19:00:00 2,1 -3,2 4 2 16 8 NNE 0,0
25.03.2020 18:00:00 2,9 -3,5 7 4 22 12 WSW 0,0
25.03.2020 17:00:00 3,6 -3,9 6 4 25 13 S 0,0
25.03.2020 16:00:00 5,2 -5,2 10 5 24 13 S 0,0
25.03.2020 15:00:00 5,4 -5,9 11 6 27 15 SSW 0,0
25.03.2020 14:00:00 5,8 -5,2 9 5 32 17 S 0,0
25.03.2020 13:00:00 6,2 -4,9 10 5 32 18 S 0,0
25.03.2020 12:00:00 4,3 -5,5 10 5 26 14 SW 0,0
25.03.2020 11:00:00 4,4 -5,4 7 4 18 10 SSW 0,0
25.03.2020 10:00:00 2,1 -3,6 4 2 9 5 SE 0,0
25.03.2020 09:00:00 -2,5 -4,5 0 0 6 3 N 0,0
25.03.2020 08:00:00 -2,4 -4,1 2 1 9 5 N 0,0
25.03.2020 07:00:00 -2,9 -3,7 0 0 5 3 N 0,0
25.03.2020 06:00:00 -3,2 -4,0 0 0 9 5 N 0,0
25.03.2020 05:00:00 -4,2 -5,0 0 0 5 3 N 0,0
25.03.2020 04:00:00 -3,8 -4,6 0 0 6 3 N 0,0
25.03.2020 03:00:00 -3,3 -4,1 3 2 7 4 E 0,0
25.03.2020 02:00:00 -2,9 -3,7 2 1 6 3 N 0,0
25.03.2020 01:00:00 -2,7 -3,4 2 1 5 3 NE 0,0
25.03.2020 00:00:00 -2,3 -3,1 2 1 5 3 E 0,0
24.03.2020 23:00:00 -1,9 -2,9 3 1 6 3 N 0,0
24.03.2020 22:00:00 -0,6 -2,2 0 0 9 5 N 0,0
24.03.2020 21:00:00 0,1 -2,0 2 1 6 3 N 0,0
24.03.2020 20:00:00 1,7 -1,6 2 1 21 12 SSW 0,0
24.03.2020 19:00:00 2,9 -1,3 5 3 18 10 SW 0,0
24.03.2020 18:00:00 3,9 -1,5 6 3 26 14 SW 0,0
24.03.2020 17:00:00 4,6 -1,8 10 6 24 13 SW 0,0
24.03.2020 16:00:00 5,5 -1,9 10 5 24 13 SW 0,0
24.03.2020 15:00:00 6,5 -1,4 8 4 27 14 SSW 0,0
24.03.2020 14:00:00 5,0 -1,9 9 5 24 13 SW 0,0
24.03.2020 13:00:00 4,1 -2,1 11 6 29 16 SW 0,0
24.03.2020 12:00:00 3,6 -1,6 10 6 22 12 WSW 0,0
24.03.2020 11:00:00 2,2 -2,7 8 4 16 9 SSW 0,0
24.03.2020 10:00:00 0,6 -3,7 4 2 14 8 SSW 0,0
24.03.2020 09:00:00 -0,1 -4,0 5 3 12 6 SSW 0,0
24.03.2020 08:00:00 0,1 -3,5 4 2 12 6 SSW 0,0
24.03.2020 07:00:00 0,3 -2,9 2 1 9 5 S 0,0
24.03.2020 06:00:00 0,5 -2,6 4 2 11 6 SW 0,0
24.03.2020 05:00:00 1,1 -1,8 4 2 9 5 S 0,0
24.03.2020 04:00:00 1,4 -1,7 2 1 9 5 NNE 0,0
24.03.2020 03:00:00 1,8 -0,9 2 1 8 4 NE 0,0
24.03.2020 02:00:00 2,3 -0,3 2 1 7 4 NE 0,0
24.03.2020 01:00:00 2,7 0,3 2 1 9 5 E 0,0
24.03.2020 00:00:00 2,8 0,0 4 2 10 5 WNW 0,0
23.03.2020 23:00:00 2,9 0,3 3 1 9 5 E 0,0
23.03.2020 22:00:00 3,2 0,3 2 1 7 4 ESE 0,0
23.03.2020 21:00:00 3,4 0,4 2 1 9 5 S 0,0
23.03.2020 20:00:00 3,2 0,3 4 2 11 6 SW 0,0
23.03.2020 19:00:00 2,8 0,5 0 0 12 6 N 0,0
23.03.2020 18:00:00 3,9 0,8 5 3 21 11 SSW 0,0
23.03.2020 17:00:00 5,8 0,9 7 4 28 15 SSW 0,0
23.03.2020 16:00:00 5,5 0,8 10 5 25 14 SW 0,0
23.03.2020 15:00:00 6,4 1,3 10 6 24 13 SW 0,0
23.03.2020 14:00:00 5,9 1,0 9 5 24 13 SSW 0,0
23.03.2020 13:00:00 5,7 1,6 9 5 23 12 SSW 0,0
23.03.2020 12:00:00 5,3 0,8 10 6 24 13 SSW 0,0
23.03.2020 11:00:00 8,2 1,1 4 2 11 6 SSE 0,0
23.03.2020 10:00:00 4,9 0,3 3 1 8 5 SE 0,0
23.03.2020 09:00:00 0,1 -0,6 0 0 5 3 N 0,0
23.03.2020 08:00:00 0,2 -0,7 2 1 4 2 N 0,0
23.03.2020 07:00:00 1,2 -0,3 0 0 6 3 N 0,0
23.03.2020 06:00:00 2,4 0,6 2 1 8 4 ENE 0,0
23.03.2020 05:00:00 2,6 1,4 0 0 6 3 N 0,0
23.03.2020 04:00:00 2,5 1,5 4 2 8 4 S 0,0
23.03.2020 03:00:00 2,6 1,7 3 1 10 5 SSW 0,0
23.03.2020 02:00:00 2,7 1,8 3 1 7 4 SSW 0,0
23.03.2020 01:00:00 2,5 1,8 3 2 10 5 SW 0,0
23.03.2020 00:00:00 2,9 2,0 5 3 13 7 S 0,0
22.03.2020 23:00:00 3,6 2,4 3 2 11 6 SSW 0,0
22.03.2020 22:00:00 3,9 2,7 3 2 11 6 S 0,0
22.03.2020 21:00:00 3,9 2,7 4 2 14 8 SSW 0,0

tt = Température de l'air
td = dewpoint
ff = Vitesse du vent
fx = gusts
dd = Direction du vent
rr = Quantités de précipitations

stations d'obs. à proximité